Latest Weather Observations for Wulungurru (Kintore)

IDD60801

Issued at 11:41 pm CST Sunday 20 May 2018 (issued every 10 minutes, with the page automatically refreshed every 10 minutes)

About weather observations | Map of weather stations | Latest weather observations for NT | Other Formats
Station Details ID: 015664 Name: WALUNGURRU AIRPORT Lat: -23.27 Lon: 129.38 Height: 454.3 m
Data from the previous 72 hours. | See also: Recent months at Wulungurru (Kintore)
Date/Time
CST
Temp
°C
App
Temp
°C
Dew
Point
°C
Rel
Hum
%
Delta-T
°C
Wind Press
QNH
hPa
Press
MSL
hPa
Rain since
9am
mm
Dir  Spd
km/h
Gust
km/h
Spd
kts
Gust
kts
20/11:36pm 17.8 9.3 0.9 32 7.6 ESE 35 54 19 29 1024.6 - 0.0
20/11:30pm 17.9 9.7 0.6 31 7.8 ESE 33 44 18 24 1024.7 - 0.0
20/11:00pm 18.1 9.5 0.3 30 8.0 ESE 35 57 19 31 1024.7 - 0.0
20/10:54pm 18.4 9.8 0.5 30 8.1 ESE 35 54 19 29 1024.7 - 0.0
20/10:30pm 18.7 10.1 0.3 29 8.3 ESE 35 50 19 27 1024.7 - 0.0
20/10:01pm 19.0 10.3 -0.4 27 8.6 ESE 35 56 19 30 1024.5 - 0.0
20/10:00pm 19.0 10.7 -0.4 27 8.6 ESE 33 50 18 27 1024.6 - 0.0
20/09:33pm 19.3 11.1 -0.7 26 8.9 SE 32 50 17 27 1024.4 - 0.0
20/09:30pm 19.0 11.2 -0.9 26 8.8 SE 30 43 16 23 1024.5 - 0.0
20/09:00pm 19.4 11.9 -1.7 24 9.1 SE 28 43 15 23 1024.1 1023.0 0.0
20/08:30pm 20.0 12.4 -2.3 22 9.6 ESE 28 37 15 20 1023.6 - 0.0
20/08:00pm 20.8 13.4 -3.6 19 10.4 ESE 26 37 14 20 1023.0 - 0.0
20/07:30pm 21.6 15.0 -3.7 18 10.8 ESE 22 33 12 18 1022.5 - 0.0
20/07:00pm 21.6 15.6 -7.0 14 11.4 ESE 17 24 9 13 1022.1 - 0.0
20/06:30pm 22.6 16.0 -7.2 13 12.0 E 20 28 11 15 1021.7 - 0.0
20/06:00pm 23.3 15.5 -7.7 12 12.4 E 26 35 14 19 1021.4 1020.2 0.0
20/05:30pm 24.2 17.2 -7.0 12 12.8 E 22 30 12 16 1021.2 - 0.0
20/05:00pm 24.8 17.8 -7.6 11 13.2 E 22 32 12 17 1021.2 - 0.0
20/04:30pm 25.0 17.5 -8.7 10 13.5 E 24 41 13 22 1021.0 - 0.0
20/04:00pm 24.7 16.8 -8.9 10 13.4 E 26 37 14 20 1021.2 - 0.0
20/03:30pm 24.8 17.1 -6.5 12 13.0 E 26 37 14 20 1021.4 - 0.0
20/03:00pm 24.3 17.0 -5.8 13 12.6 E 24 37 13 20 1021.7 1020.5 0.0
20/02:30pm 24.2 17.0 -5.0 14 12.4 E 24 35 13 19 1021.9 - 0.0
20/02:00pm 23.6 16.8 -5.4 14 12.2 E 22 33 12 18 1022.2 - 0.0
20/01:30pm 23.1 15.8 -6.8 13 12.2 E 24 46 13 25 1022.6 - 0.0
20/01:00pm 22.7 16.0 -4.4 16 11.5 E 22 33 12 18 1023.1 - 0.0
20/12:30pm 22.4 15.7 -3.8 17 11.2 ENE 22 30 12 16 1023.7 - 0.0
20/12:00pm 21.1 14.4 -4.1 18 10.6 ESE 22 32 12 17 1024.1 1023.0 0.0
20/11:30am 20.4 13.3 -4.7 18 10.4 E 24 35 13 19 1024.3 - 0.0
20/11:00am 19.3 13.0 -1.2 25 9.0 E 22 30 12 16 1024.7 - 0.0
20/10:30am 18.0 11.3 -0.8 28 8.2 E 24 32 13 17 1024.8 - 0.0
20/10:00am 16.7 10.2 0.4 33 7.2 ESE 24 35 13 19 1024.8 - 0.0
20/09:30am 15.7 9.1 1.8 39 6.3 ESE 26 33 14 18 1024.7 - 0.0
20/09:00am 14.4 7.1 2.3 44 5.5 ESE 30 44 16 24 1024.4 1023.3 0.0
20/08:43am 13.7 6.8 2.3 46 5.1 SE 28 48 15 26 1024.4 - 0.0
20/08:30am 13.3 7.1 2.2 47 5.0 SE 24 39 13 21 1024.3 - 0.0
20/08:00am 9.9 5.1 0.0 50 4.1 SSE 15 24 8 13 1024.0 - 0.0
20/07:30am 8.5 3.2 -0.5 53 3.6 SSE 17 30 9 16 1023.7 - 0.0
20/07:00am 9.1 3.7 -1.0 49 4.0 SSE 17 26 9 14 1023.5 - 0.0
20/06:30am 11.8 4.9 0.0 44 5.0 SE 26 41 14 22 1022.9 - 0.0
20/06:14am 12.8 4.8 0.2 42 5.4 ESE 32 50 17 27 1022.7 - 0.0
20/06:00am 12.9 4.8 0.0 41 5.5 ESE 32 46 17 25 1022.8 1021.7 0.0
20/05:30am 13.2 5.1 -0.4 39 5.7 ESE 32 46 17 25 1022.6 - 0.0
20/05:00am 13.2 4.4 -1.5 36 6.1 ESE 35 48 19 26 1022.4 - 0.0
20/04:33am 13.5 5.0 -1.6 35 6.2 ESE 33 54 18 29 1022.4 - 0.0
20/04:30am 13.3 4.9 -2.2 34 6.3 ESE 32 43 17 23 1022.4 - 0.0
20/04:00am 13.4 4.9 -2.9 32 6.5 ESE 32 43 17 23 1022.5 - 0.0
20/03:30am 14.0 5.0 -2.8 31 6.8 ESE 35 50 19 27 1022.5 - 0.0
20/03:00am 14.4 5.9 -2.9 30 7.0 ESE 32 43 17 23 1022.6 1021.5 0.0
20/02:30am 14.7 5.8 -2.2 31 7.0 ESE 35 48 19 26 1022.6 - 0.0
20/02:12am 14.7 5.8 -2.2 31 7.0 ESE 35 56 19 30 1022.5 - 0.0
20/02:00am 14.8 5.5 -2.1 31 7.0 ESE 37 52 20 28 1022.6 - 0.0
20/01:30am 15.2 5.9 -1.8 31 7.1 ESE 37 54 20 29 1022.6 - 0.0
20/01:14am 15.3 6.4 -1.7 31 7.1 ESE 35 54 19 29 1022.8 - 0.0
20/01:00am 15.6 7.1 -1.9 30 7.3 ESE 33 46 18 25 1022.9 - 0.0
20/12:30am 15.8 7.8 -2.2 29 7.5 ESE 30 46 16 25 1023.1 - 0.0
20/12:17am 16.2 8.6 -1.8 29 7.6 ESE 28 48 15 26 1023.2 - 0.0
20/12:00am 16.2 7.8 -2.3 28 7.7 ESE 32 43 17 23 1023.5 1022.3 0.0
 
Date/Time
CST
Temp
°C
App
Temp
°C
Dew
Point
°C
Rel
Hum
%
Delta-T
°C
Wind Press
QNH
hPa
Press
MSL
hPa
Rain since
9am
mm
Dir  Spd
km/h
Gust
km/h
Spd
kts
Gust
kts
19/11:30pm 16.2 8.5 -2.8 27 7.8 ESE 28 43 15 23 1023.6 - 0.0
19/11:00pm 15.9 8.1 -3.6 26 7.9 SE 28 41 15 22 1023.5 - 0.0
19/10:30pm 16.0 7.7 -4.5 24 8.1 SE 30 41 16 22 1023.3 - 0.0
19/10:00pm 16.7 8.8 -5.1 22 8.6 SE 28 39 15 21 1023.3 - 0.0
19/09:30pm 17.3 9.3 -5.8 20 9.1 SE 28 37 15 20 1023.2 - 0.0
19/09:00pm 17.5 9.1 -6.3 19 9.2 SE 30 43 16 23 1022.9 1021.8 0.0
19/08:30pm 18.3 10.5 -7.1 17 9.8 SE 26 35 14 19 1022.5 - 0.0
19/08:00pm 18.7 11.3 -7.6 16 10.1 SE 24 35 13 19 1022.3 - 0.0
19/07:30pm 19.2 12.1 -8.9 14 10.5 SE 22 30 12 16 1021.9 - 0.0
19/07:00pm 19.8 12.6 -9.4 13 10.9 SE 22 30 12 16 1021.5 - 0.0
19/06:30pm 20.9 14.3 -9.5 12 11.5 ESE 19 28 10 15 1021.2 - 0.0
19/06:00pm 21.9 15.2 -9.9 11 12.0 ESE 19 30 10 16 1020.8 1019.7 0.0
19/05:30pm 22.6 15.7 -10.5 10 12.5 ESE 20 28 11 15 1020.5 - 0.0
19/05:00pm 23.5 16.9 -9.8 10 12.9 E 19 30 10 16 1020.4 - 0.0
19/04:30pm 23.8 17.9 -9.6 10 13.0 SE 15 30 8 16 1020.3 - 0.0
19/04:00pm 23.5 16.3 -9.8 10 12.9 SE 22 30 12 16 1020.4 - 0.0
19/03:30pm 23.3 15.7 -10.0 10 12.8 ESE 24 39 13 21 1020.5 - 0.0
19/03:00pm 23.4 17.6 -8.7 11 12.6 E 15 35 8 19 1020.7 1019.6 0.0
19/02:30pm 23.1 16.3 -8.9 11 12.5 ESE 20 37 11 20 1021.0 - 0.0
19/02:00pm 22.8 15.7 -8.1 12 12.2 ESE 22 33 12 18 1021.5 - 0.0
19/01:30pm 22.6 15.5 -8.2 12 12.2 ESE 22 35 12 19 1022.0 - 0.0
19/01:00pm 21.4 14.8 -7.2 14 11.4 ESE 20 33 11 18 1022.5 - 0.0
19/12:30pm 20.5 13.4 -7.9 14 11.0 ESE 22 32 12 17 1023.1 - 0.0
19/12:00pm 19.4 12.5 -6.2 17 10.1 ESE 22 33 12 18 1023.8 1022.7 0.0
19/11:30am 18.7 12.2 -6.1 18 9.8 E 20 28 11 15 1024.3 - 0.0
19/11:00am 17.7 11.3 -4.9 21 9.1 ESE 20 30 11 16 1024.8 - 0.0
19/10:30am 16.6 9.9 -4.0 24 8.3 ESE 22 32 12 17 1024.9 - 0.0
19/10:00am 15.0 8.0 -3.8 27 7.5 SE 24 33 13 18 1024.8 - 0.0
19/09:30am 14.0 6.2 -3.7 29 7.0 ESE 28 39 15 21 1024.9 - 0.0
19/09:00am 13.1 5.0 -3.2 32 6.4 ESE 30 43 16 23 1024.7 1023.6 0.0
19/08:30am 12.2 3.7 -3.2 34 6.1 SE 32 44 17 24 1024.4 - 0.0
19/08:00am 11.0 4.1 -2.8 38 5.4 SE 24 32 13 17 1024.3 - 0.0
19/07:30am 10.4 3.9 -2.6 40 5.1 SE 22 33 12 18 1024.2 - 0.0
19/07:00am 10.9 4.0 -2.8 38 5.4 ESE 24 37 13 20 1024.0 - 0.0
19/06:30am 11.2 4.4 -2.2 39 5.3 SE 24 39 13 21 1023.7 - 0.0
19/06:00am 11.2 4.3 -2.6 38 5.4 SE 24 37 13 20 1023.3 1022.2 0.0
19/05:30am 12.2 4.9 -2.8 35 5.9 ESE 26 35 14 19 1023.2 - 0.0
19/05:00am 12.6 5.3 -2.8 34 6.1 ESE 26 44 14 24 1023.2 - 0.0
19/04:30am 13.0 5.7 -2.9 33 6.3 ESE 26 41 14 22 1023.2 - 0.0
19/04:00am 13.6 5.2 -2.8 32 6.6 ESE 32 43 17 23 1023.1 - 0.0
19/03:30am 13.8 5.7 -3.0 31 6.7 ESE 30 39 16 21 1023.0 - 0.0
19/03:00am 14.1 6.4 -3.2 30 6.9 ESE 28 39 15 21 1023.0 1021.9 0.0
19/02:30am 14.6 6.9 -3.2 29 7.2 ESE 28 41 15 22 1023.1 - 0.0
19/02:00am 14.6 6.4 -3.7 28 7.3 ESE 30 46 16 25 1022.9 - 0.0
19/01:52am 14.9 7.1 -3.4 28 7.4 ESE 28 46 15 25 1022.8 - 0.0
19/01:30am 14.7 6.9 -4.1 27 7.4 ESE 28 39 15 21 1023.0 - 0.0
19/01:00am 15.6 6.9 -3.8 26 7.8 ESE 33 44 18 24 1022.9 - 0.0
19/12:38am 16.1 7.4 -3.4 26 7.9 ESE 33 52 18 28 1022.8 - 0.0
19/12:30am 15.9 7.1 -4.1 25 8.0 ESE 33 50 18 27 1022.9 - 0.0
19/12:06am 16.3 7.5 -4.3 24 8.2 ESE 33 52 18 28 1022.9 - 0.0
19/12:00am 16.3 7.7 -4.3 24 8.2 ESE 32 46 17 25 1023.0 1021.9 0.0
 
Date/Time
CST
Temp
°C
App
Temp
°C
Dew
Point
°C
Rel
Hum
%
Delta-T
°C
Wind Press
QNH
hPa
Press
MSL
hPa
Rain since
9am
mm
Dir  Spd
km/h
Gust
km/h
Spd
kts
Gust
kts
18/11:30pm 16.6 7.0 -4.6 23 8.5 ESE 37 56 20 30 1022.7 - 0.0
18/11:14pm 16.5 8.2 -5.3 22 8.6 ESE 30 48 16 26 1023.1 - 0.0
18/11:00pm 16.6 8.7 -5.2 22 8.6 ESE 28 41 15 22 1023.2 - 0.0
18/10:30pm 16.9 8.9 -6.2 20 8.9 ESE 28 39 15 21 1023.1 - 0.0
18/10:00pm 17.1 9.4 -6.7 19 9.1 ESE 26 35 14 19 1023.1 - 0.0
18/09:30pm 17.6 9.8 -7.7 17 9.6 SE 26 35 14 19 1023.1 - 0.0
18/09:00pm 18.1 10.3 -8.1 16 9.8 ESE 26 39 14 21 1023.1 1022.0 0.0
18/08:30pm 18.6 10.7 -8.5 15 10.2 SE 26 35 14 19 1023.2 - 0.0
18/08:00pm 19.1 11.3 -8.1 15 10.4 SE 26 35 14 19 1022.9 - 0.0
18/07:30pm 19.6 12.1 -8.6 14 10.7 SE 24 32 13 17 1022.5 - 0.0
18/07:00pm 20.3 14.1 -9.0 13 11.1 ESE 17 24 9 13 1022.2 - 0.0
18/06:30pm 20.8 14.2 -9.6 12 11.5 ESE 19 26 10 14 1021.6 - 0.0
18/06:00pm 21.1 14.0 -8.4 13 11.4 ESE 22 37 12 20 1021.3 1020.1 0.0
18/05:30pm 22.2 15.5 -8.5 12 12.0 ESE 20 32 11 17 1021.2 - 0.0
18/05:00pm 21.8 15.0 -8.8 12 11.8 ESE 20 33 11 18 1021.4 - 0.0
18/04:30pm 22.3 15.8 -8.4 12 12.0 ESE 19 30 10 16 1021.4 - 0.0
18/04:00pm 22.1 15.4 -7.6 13 11.8 ESE 20 32 11 17 1021.3 - 0.0
18/03:30pm 22.4 14.9 -8.4 12 12.1 ESE 24 39 13 21 1021.4 - 0.0
18/03:00pm 22.6 14.7 -8.2 12 12.1 E 26 35 14 19 1021.8 1020.7 0.0
18/02:30pm 22.2 14.4 -7.5 13 11.8 E 26 39 14 21 1022.3 - 0.0
18/02:00pm 22.1 14.4 -6.6 14 11.6 E 26 35 14 19 1022.8 - 0.0
18/01:30pm 21.5 13.7 -7.1 14 11.4 E 26 39 14 21 1023.7 - 0.0
18/01:00pm 20.8 13.5 -5.9 16 10.8 E 24 35 13 19 1024.2 - 0.0
18/12:30pm 19.6 12.4 -5.3 18 10.1 E 24 33 13 18 1024.8 - 0.0
18/12:00pm 18.7 11.2 -4.7 20 9.5 E 26 37 14 20 1025.4 1024.3 0.0
18/11:30am 18.3 10.8 -4.4 21 9.3 E 26 35 14 19 1025.9 - 0.0
18/11:00am 17.6 10.3 -3.2 24 8.6 E 26 39 14 21 1026.4 - 0.0
18/10:30am 16.5 9.2 -3.0 26 8.0 E 26 32 14 17 1026.8 - 0.0
18/10:00am 16.2 7.6 -2.3 28 7.7 ESE 33 46 18 25 1026.4 - 0.0
18/09:30am 14.8 6.8 -2.1 31 7.0 E 30 43 16 23 1026.4 - 0.0
18/09:00am 13.2 5.3 -1.5 36 6.0 ESE 30 43 16 23 1026.0 1024.9 0.0
18/08:44am 13.0 5.1 -1.3 37 5.9 ESE 30 48 16 26 1025.9 - 0.0
18/08:30am 12.6 5.5 -1.0 39 5.6 ESE 26 43 14 23 1025.8 - 0.0
18/08:00am 11.8 5.1 -1.0 41 5.3 ESE 24 35 13 19 1025.4 - 0.0
18/07:30am 12.2 4.8 -1.0 40 5.5 ESE 28 43 15 23 1025.2 - 0.0
18/07:00am 12.1 5.4 -1.1 40 5.4 ESE 24 37 13 20 1024.9 - 0.0
18/06:30am 11.9 5.7 -0.6 42 5.2 ESE 22 35 12 19 1024.6 - 0.0
18/06:00am 11.6 5.3 -0.9 42 5.1 ESE 22 32 12 17 1024.6 1023.5 0.0
18/05:30am 12.9 5.9 -0.7 39 5.7 ESE 26 41 14 22 1024.2 - 0.0
18/05:00am 13.8 5.0 -1.0 36 6.2 ESE 35 54 19 29 1024.3 - 0.0
18/04:30am 13.8 6.0 -1.0 36 6.2 ESE 30 48 16 26 1024.4 - 0.0
18/04:26am 14.1 6.7 -0.7 36 6.3 ESE 28 48 15 26 1024.4 - 0.0
18/04:00am 13.7 6.3 -0.7 37 6.1 ESE 28 37 15 20 1024.3 - 0.0
18/03:30am 14.2 6.8 -0.6 36 6.3 ESE 28 41 15 22 1024.2 - 0.0
18/03:00am 14.4 7.5 -0.1 37 6.2 ESE 26 35 14 19 1024.5 1023.4 0.0
18/02:43am 15.1 7.0 -0.2 35 6.6 ESE 32 50 17 27 1024.6 - 0.0
18/02:30am 15.4 6.8 0.0 35 6.7 ESE 35 50 19 27 1024.7 - 0.0
18/02:00am 15.7 7.4 -0.1 34 6.9 ESE 33 50 18 27 1024.7 - 0.0
18/01:30am 16.0 7.7 -0.2 33 7.1 ESE 33 44 18 24 1024.9 - 0.0
18/01:00am 16.1 8.4 -0.2 33 7.1 ESE 30 39 16 21 1024.9 - 0.0
18/12:30am 15.9 7.7 -0.8 32 7.2 ESE 32 50 17 27 1024.9 - 0.0
18/12:19am 16.3 8.2 -0.4 32 7.3 ESE 32 52 17 28 1024.8 - 0.0
18/12:00am 16.5 8.1 -0.7 31 7.4 ESE 33 48 18 26 1025.1 1024.0 0.0

Other Formats:

Comma delimited format used in spreadsheet applications
http://www.bom.gov.au/fwo/IDD60801/IDD60801.94321.axf

JavaScript Object Notation format (JSON) in row-major order
http://www.bom.gov.au/fwo/IDD60801/IDD60801.94321.json